This is the latest recevied weather packets stored in our database for station/object DL2BWO-13. If no packets are shown the sender has not sent any weather packets the latest 10 day(s).
| Time | Temp. | Humidity | Pressure | Rain* | Wind** | Luminosity | Snow |
|---|---|---|---|---|---|---|---|
| 1777569289 | 20.56° C | 50% | 748.6 hPa | 0 mm | - | - | - |
| 1777568353 | 20.56° C | 49% | 749 hPa | 0 mm | - | - | - |
| 1777567417 | 21.11° C | 46% | 749.5 hPa | 0 mm | - | - | - |
| 1777566481 | 20.56° C | 47% | 749.1 hPa | 0 mm | - | - | - |
| 1777564609 | 20.56° C | 47% | 749 hPa | 0 mm | - | - | - |
| 1777563673 | 21.11° C | 46% | 749.4 hPa | 0 mm | - | - | - |
| 1777562737 | 21.11° C | 45% | 749.5 hPa | 0 mm | - | - | - |
| 1777561801 | 21.67° C | 45% | 749.9 hPa | 0 mm | - | - | - |
| 1777560866 | 21.67° C | 46% | 750.1 hPa | 0 mm | - | - | - |
| 1777559929 | 22.78° C | 45% | 751.1 hPa | 0 mm | - | - | - |
| 1777558994 | 22.22° C | 46% | 750.8 hPa | 0 mm | - | - | - |
| 1777558058 | 23.33° C | 44% | 751.6 hPa | 0 mm | - | - | - |
| 1777556186 | 22.78° C | 45% | 751.3 hPa | 0 mm | - | - | - |
| 1777555250 | 22.22° C | 45% | 750.8 hPa | 0 mm | - | - | - |
| 1777554314 | 21.11° C | 48% | 749.6 hPa | 0 mm | - | - | - |
| 1777553378 | 22.22° C | 44% | 750.6 hPa | 0 mm | - | - | - |
| 1777552442 | 22.22° C | 46% | 750.5 hPa | 0 mm | - | - | - |
| 1777550570 | 21.11° C | 45% | 749.4 hPa | 0 mm | - | - | - |
| 1777548698 | 21.67° C | 45% | 749.8 hPa | 0 mm | - | - | - |
| 1777547762 | 20.56° C | 47% | 748.6 hPa | 0 mm | - | - | - |
| 1777545890 | 19.44° C | 46% | 747.6 hPa | 0 mm | - | - | - |
| 1777544954 | 18.89° C | 48% | 747.1 hPa | 0 mm | - | - | - |
| 1777544018 | 18.89° C | 48% | 747 hPa | 0 mm | - | - | - |
* Rain latest hour (hover to see other rain measurements)
** Current wind speed in m/s (hover to see current wind gust speed)